Time,TemperatureF,DewpointF,PressureIn,WindDirection,WindDirectionDegrees,WindSpeedMPH,WindSpeedGustMPH,Humidity,HourlyPrecipIn,Conditions,Clouds,dailyrainin,SoftwareType,DateUTC
2013-01-31 08:42:00,62.0,43.0,-100.00,NNE,12,-999.0,0.0,50,-99.99,,,-99.99,,2013-01-31 16:42:00,
2013-01-31 08:52:00,62.0,43.0,-100.00,NNE,12,-999.0,0.0,50,-99.99,,,-99.99,,2013-01-31 16:52:00,
2013-01-31 09:02:00,62.0,43.0,-100.00,NNE,12,-999.0,0.0,50,-99.99,,,-99.99,,2013-01-31 17:02:00,
2013-01-31 10:12:00,71.0,43.0,-100.00,East,85,-999.0,1.0,37,-99.99,,,-99.99,,2013-01-31 18:12:00,
2013-01-31 10:42:00,74.0,44.0,0.00,NNW,334,-999.0,-999.0,34,-99.99,,,0.00,,2013-01-31 18:42:00,
2013-01-31 10:52:00,74.0,44.0,0.00,NNW,334,-999.0,-999.0,34,-99.99,,,0.00,,2013-01-31 18:52:00,
2013-01-31 11:02:00,74.0,44.0,0.00,NNW,334,-999.0,-999.0,34,-99.99,,,0.00,,2013-01-31 19:02:00,
2013-01-31 11:11:00,72.0,46.0,-100.00,WSW,247,-999.0,1.0,40,-99.99,,,-99.99,,2013-01-31 19:11:00,
2013-01-31 11:21:00,72.0,46.0,-100.00,WSW,247,-999.0,1.0,40,-99.99,,,-99.99,,2013-01-31 19:21:00,
2013-01-31 11:32:00,72.0,46.0,-100.00,WSW,247,-999.0,1.0,40,-99.99,,,-99.99,,2013-01-31 19:32:00,
2013-01-31 11:42:00,72.0,50.0,-100.00,SSW,198,-999.0,-999.0,46,-99.99,,,-99.99,,2013-01-31 19:42:00,
2013-01-31 11:52:00,72.0,50.0,-100.00,SSW,198,-999.0,-999.0,46,-99.99,,,-99.99,,2013-01-31 19:52:00,
2013-01-31 12:02:00,72.0,50.0,-100.00,SSW,198,-999.0,-999.0,46,-99.99,,,-99.99,,2013-01-31 20:02:00,
2013-01-31 12:11:00,72.0,50.0,-100.00,SSW,198,-999.0,-999.0,46,-99.99,,,-99.99,,2013-01-31 20:11:00,
2013-01-31 13:13:00,71.0,-99.9,-100.00,WSW,242,-999.0,-999.0,-999,-99.99,,,-99.99,,2013-01-31 21:13:00,
2013-01-31 13:22:00,71.0,-99.9,-100.00,WSW,242,-999.0,-999.0,-999,-99.99,,,-99.99,,2013-01-31 21:22:00,
2013-01-31 13:32:00,71.0,-99.9,-100.00,WSW,242,-999.0,-999.0,-999,-99.99,,,-99.99,,2013-01-31 21:32:00,
2013-01-31 13:42:00,71.0,-99.9,-100.00,WSW,242,-999.0,-999.0,-999,-99.99,,,-99.99,,2013-01-31 21:42:00,
2013-01-31 16:11:00,69.0,51.0,-100.00,West,276,-999.0,-999.0,52,-99.99,,,-99.99,,2013-02-01 00:11:00,
2013-01-31 16:21:00,69.0,51.0,-100.00,West,276,-999.0,-999.0,52,-99.99,,,-99.99,,2013-02-01 00:21:00,
2013-01-31 16:31:00,69.0,51.0,-100.00,West,276,-999.0,-999.0,52,-99.99,,,-99.99,,2013-02-01 00:31:00,
2013-01-31 16:42:00,65.0,52.0,0.00,WNW,283,-999.0,1.0,63,-99.99,,,-99.99,,2013-02-01 00:42:00,
2013-01-31 16:52:00,65.0,52.0,0.00,WNW,283,-999.0,1.0,63,-99.99,,,-99.99,,2013-02-01 00:52:00,
2013-01-31 17:01:00,65.0,52.0,0.00,WNW,283,-999.0,1.0,63,-99.99,,,-99.99,,2013-02-01 01:01:00,
2013-01-31 17:11:00,65.0,51.0,-100.00,WSW,252,-999.0,1.0,60,-99.99,,,-99.99,,2013-02-01 01:11:00,
2013-01-31 17:21:00,65.0,51.0,-100.00,WSW,252,-999.0,1.0,60,-99.99,,,-99.99,,2013-02-01 01:21:00,
2013-01-31 17:31:00,65.0,51.0,-100.00,WSW,252,-999.0,1.0,60,-99.99,,,-99.99,,2013-02-01 01:31:00,
2013-01-31 17:41:00,64.0,48.0,-100.00,SSW,198,-999.0,-999.0,57,-99.99,,,0.00,,2013-02-01 01:41:00,
2013-01-31 17:52:00,64.0,48.0,-100.00,SSW,198,-999.0,-999.0,57,-99.99,,,0.00,,2013-02-01 01:52:00,
2013-01-31 18:01:00,64.0,48.0,-100.00,SSW,198,-999.0,-999.0,57,-99.99,,,0.00,,2013-02-01 02:01:00,
2013-01-31 18:11:00,64.0,48.0,-100.00,SSW,198,-999.0,-999.0,57,-99.99,,,0.00,,2013-02-01 02:11:00,
2013-01-31 18:42:00,60.0,52.0,-100.00,NE,53,-999.0,0.0,75,-99.99,,,-99.99,,2013-02-01 02:42:00,
2013-01-31 18:52:00,60.0,52.0,-100.00,NE,53,-999.0,0.0,75,-99.99,,,-99.99,,2013-02-01 02:52:00,
2013-01-31 19:01:00,60.0,52.0,-100.00,NE,53,-999.0,0.0,75,-99.99,,,-99.99,,2013-02-01 03:01:00,
2013-01-31 19:11:00,60.0,52.0,-100.00,NE,53,-999.0,0.0,75,-99.99,,,-99.99,,2013-02-01 03:11:00,
2013-01-31 19:42:00,58.0,52.0,0.00,NE,50,-999.0,-999.0,79,-99.99,,,-99.99,,2013-02-01 03:42:00,
2013-01-31 19:52:00,58.0,52.0,0.00,NE,50,-999.0,-999.0,79,-99.99,,,-99.99,,2013-02-01 03:52:00,
2013-01-31 20:02:00,58.0,52.0,0.00,NE,50,-999.0,-999.0,79,-99.99,,,-99.99,,2013-02-01 04:02:00,
2013-01-31 20:11:00,58.0,52.0,-100.00,North,-999,-999.0,-999.0,79,-99.99,,,-99.99,,2013-02-01 04:11:00,
2013-01-31 20:21:00,58.0,52.0,-100.00,North,-999,-999.0,-999.0,79,-99.99,,,-99.99,,2013-02-01 04:21:00,
2013-01-31 20:31:00,58.0,52.0,-100.00,North,-999,-999.0,-999.0,79,-99.99,,,-99.99,,2013-02-01 04:31:00,
2013-01-31 20:41:00,56.0,51.0,-100.00,North,1,-999.0,-999.0,82,-99.99,,,-99.99,,2013-02-01 04:41:00,
2013-01-31 20:52:00,56.0,51.0,-100.00,North,1,-999.0,-999.0,82,-99.99,,,-99.99,,2013-02-01 04:52:00,
2013-01-31 21:03:00,56.0,51.0,-100.00,North,1,-999.0,-999.0,82,-99.99,,,-99.99,,2013-02-01 05:03:00,
2013-01-31 21:11:00,56.0,50.0,-100.00,North,354,-999.0,0.0,79,-99.99,,,-99.99,,2013-02-01 05:11:00,
2013-01-31 21:22:00,56.0,50.0,-100.00,North,354,-999.0,0.0,79,-99.99,,,-99.99,,2013-02-01 05:22:00,
2013-01-31 21:31:00,56.0,50.0,-100.00,North,354,-999.0,0.0,79,-99.99,,,-99.99,,2013-02-01 05:31:00,
2013-01-31 21:41:00,55.0,49.0,-100.00,North,354,-999.0,-999.0,80,-99.99,,,-99.99,,2013-02-01 05:41:00,
2013-01-31 21:52:00,55.0,49.0,-100.00,North,354,-999.0,-999.0,80,-99.99,,,-99.99,,2013-02-01 05:52:00,
2013-01-31 22:02:00,55.0,49.0,-100.00,North,354,-999.0,-999.0,80,-99.99,,,-99.99,,2013-02-01 06:02:00,
2013-01-31 22:11:00,55.0,47.0,-100.00,North,353,-999.0,0.0,75,-99.99,,,-99.99,,2013-02-01 06:11:00,
2013-01-31 22:21:00,55.0,47.0,-100.00,North,353,-999.0,0.0,75,-99.99,,,-99.99,,2013-02-01 06:21:00,
2013-01-31 22:32:00,55.0,47.0,-100.00,North,353,-999.0,0.0,75,-99.99,,,-99.99,,2013-02-01 06:32:00,
2013-01-31 22:41:00,57.0,47.0,0.00,North,358,-999.0,-999.0,70,-99.99,,,-99.99,,2013-02-01 06:41:00,
2013-01-31 22:52:00,57.0,47.0,0.00,North,358,-999.0,-999.0,70,-99.99,,,-99.99,,2013-02-01 06:52:00,
2013-01-31 23:01:00,57.0,47.0,0.00,North,358,-999.0,-999.0,70,-99.99,,,-99.99,,2013-02-01 07:01:00,
2013-01-31 23:11:00,57.0,47.0,0.00,North,358,-999.0,-999.0,70,-99.99,,,-99.99,,2013-02-01 07:11:00,
2013-01-31 23:42:00,57.0,47.0,-100.00,NNE,22,-999.0,0.0,70,-99.99,,,-99.99,,2013-02-01 07:42:00,
2013-01-31 23:52:00,57.0,47.0,-100.00,NNE,22,-999.0,0.0,70,-99.99,,,-99.99,,2013-02-01 07:52:00,